Time;durP1;ratioP1;P1;durP2;ratioP2;P2;SDS_P1;SDS_P2;PMS_P1;PMS_P2;Temp;Humidity;BMP_temperature;BMP_pressure;BME280_temperature;BME280_humidity;BME280_pressure;Samples;Min_cycle;Max_cycle;Signal;HPM_P1;HPM_P2
2022/05/23 00:01:55;;;;;;;6.35;2.60;;;;;;;14.22;100.00;164284.13;5069744;28;20041;-60
2022/05/23 00:04:20;;;;;;;6.63;3.08;;;;;;;14.19;100.00;164275.97;5072083;28;20040;-60
2022/05/23 00:06:46;;;;;;;6.22;2.75;;;;;;;14.16;100.00;164267.88;5070216;28;20051;-60
2022/05/23 00:09:11;;;;;;;7.25;2.72;;;;;;;14.12;100.00;164257.03;5071338;28;20101;-60
2022/05/23 00:11:37;;;;;;;5.15;3.17;;;;;;;14.15;100.00;164265.19;5069837;28;20066;-60
2022/05/23 00:14:03;;;;;;;3.60;2.65;;;;;;;14.08;100.00;164247.56;5071959;28;20441;-60
2022/05/23 00:16:33;;;;;;;4.07;3.28;;;;;;;14.10;100.00;164253.00;5069998;28;20048;-61
2022/05/23 00:18:59;;;;;;;6.22;3.25;;;;;;;14.08;100.00;164246.25;5070904;28;20032;-61
2022/05/23 00:21:24;;;;;;;6.45;3.10;;;;;;;14.06;100.00;164240.81;5069936;28;20040;-61
2022/05/23 00:23:50;;;;;;;6.45;2.33;;;;;;;14.02;100.00;164231.34;5070842;28;20044;-61
2022/05/23 00:26:19;;;;;;;5.55;2.85;;;;;;;14.02;100.00;164231.34;5070228;28;20040;-61
2022/05/23 00:28:45;;;;;;;9.90;3.28;;;;;;;14.02;100.00;164230.03;5071317;28;20150;-61
2022/05/23 00:31:11;;;;;;;5.57;2.80;;;;;;;13.98;100.00;164220.56;5069545;28;20154;-61
2022/05/23 00:36:20;;;;;;;4.10;2.83;;;;;;;14.01;100.00;164227.31;5070206;28;20067;-61
2022/05/23 00:38:46;;;;;;;8.85;3.72;;;;;;;14.01;100.00;164228.63;5070779;28;20020;-61
2022/05/23 00:44:26;;;;;;;6.63;3.75;;;;;;;14.08;100.00;164246.25;5071436;28;20039;-61
2022/05/23 00:46:58;;;;;;;7.55;2.95;;;;;;;14.05;100.00;164238.09;5067660;28;20064;-61
2022/05/23 00:49:29;;;;;;;5.35;2.83;;;;;;;14.03;100.00;164232.72;5071185;28;20519;-61
2022/05/23 00:51:57;;;;;;;7.30;3.28;;;;;;;14.04;100.00;164235.38;5069314;28;20476;-61
2022/05/23 00:54:24;;;;;;;7.20;2.67;;;;;;;14.00;100.00;164224.59;5070952;28;20032;-61
2022/05/23 00:56:52;;;;;;;3.75;3.00;;;;;;;14.05;100.00;164239.47;5069253;28;20052;-61
2022/05/23 00:59:26;;;;;;;18.77;4.55;;;;;;;14.03;100.00;164232.72;5070461;28;20024;-61
2022/05/23 01:01:51;;;;;;;5.35;2.78;;;;;;;14.06;100.00;164240.81;5069078;28;20043;-61
2022/05/23 01:04:17;;;;;;;7.55;2.95;;;;;;;14.04;100.00;164235.38;5070600;28;20021;-61
2022/05/23 01:06:42;;;;;;;3.88;2.80;;;;;;;14.04;100.00;164235.38;5069022;28;20052;-61
2022/05/23 01:09:07;;;;;;;8.18;3.10;;;;;;;14.01;100.00;164227.31;5070463;28;20020;-61
2022/05/23 01:11:33;;;;;;;4.80;2.97;;;;;;;13.99;100.00;164223.25;5069248;28;20045;-61
2022/05/23 01:13:58;;;;;;;6.70;2.85;;;;;;;14.00;100.00;164224.59;5070444;28;20392;-61
2022/05/23 01:16:26;;;;;;;9.75;3.45;;;;;;;13.99;100.00;164223.25;5068957;28;20047;-62
2022/05/23 01:18:52;;;;;;;6.32;2.90;;;;;;;13.94;100.00;164211.09;5050255;28;20480;-62
2022/05/23 01:21:45;;;;;;;3.83;2.17;;;;;;;13.96;100.00;164216.47;5061030;28;20033;-62
2022/05/23 01:24:21;;;;;;;3.63;3.28;;;;;;;13.96;100.00;164215.13;5069832;28;20036;-61
2022/05/23 01:26:48;;;;;;;7.72;3.38;;;;;;;13.95;100.00;164213.78;5068410;28;20778;-62
2022/05/23 01:29:14;;;;;;;14.95;4.53;;;;;;;13.90;100.00;164200.25;5070662;28;20472;-59
2022/05/23 01:31:41;;;;;;;6.10;3.78;;;;;;;13.82;100.00;164178.59;5068329;28;20045;-62
2022/05/23 01:34:07;;;;;;;6.25;3.30;;;;;;;13.74;100.00;164156.94;5070545;28;20029;-62
2022/05/23 01:36:32;;;;;;;11.85;5.10;;;;;;;13.77;100.00;164165.06;5069298;28;20049;-63
2022/05/23 01:38:58;;;;;;;10.38;4.63;;;;;;;13.77;100.00;164165.06;5069934;28;20020;-63
2022/05/23 01:41:23;;;;;;;9.27;3.92;;;;;;;13.74;100.00;164156.94;5069150;28;20048;-62
2022/05/23 01:43:48;;;;;;;6.40;3.53;;;;;;;13.74;100.00;164156.94;5070117;28;20074;-62
2022/05/23 01:46:14;;;;;;;7.90;3.35;;;;;;;13.75;100.00;164159.66;5068530;28;20041;-62
2022/05/23 01:48:39;;;;;;;6.05;3.53;;;;;;;13.76;100.00;164162.38;5069921;28;20037;-62
2022/05/23 01:51:04;;;;;;;9.30;3.40;;;;;;;13.78;100.00;164167.78;5068853;28;20036;-62
2022/05/23 01:53:30;;;;;;;9.77;2.90;;;;;;;13.76;100.00;164162.38;5070478;28;20078;-62
2022/05/23 01:55:57;;;;;;;6.00;3.20;;;;;;;13.73;100.00;164154.28;5068639;28;20043;-62
2022/05/23 02:01:15;;;;;;;4.25;2.95;;;;;;;13.70;100.00;164146.16;5072457;28;20113;-63
2022/05/23 02:03:46;;;;;;;10.80;3.63;;;;;;;13.67;100.00;164139.41;5074169;28;20483;-63
2022/05/23 02:06:12;;;;;;;6.15;3.13;;;;;;;13.71;100.00;164148.84;5072928;28;20064;-63
2022/05/23 02:08:37;;;;;;;4.53;3.30;;;;;;;13.53;100.00;164102.88;5073405;28;20103;-63
2022/05/23 02:11:06;;;;;;;5.07;3.92;;;;;;;13.68;100.00;164142.09;5072883;28;20044;-63
2022/05/23 02:13:36;;;;;;;4.85;2.95;;;;;;;13.72;100.00;164151.56;5074370;28;20043;-63
2022/05/23 02:16:02;;;;;;;5.75;3.55;;;;;;;13.75;100.00;164159.66;5072273;28;20039;-63
2022/05/23 02:18:29;;;;;;;7.82;4.55;;;;;;;13.75;100.00;164159.66;5073726;28;20032;-63
2022/05/23 02:20:54;;;;;;;8.57;4.10;;;;;;;13.74;100.00;164156.94;5072313;28;20097;-63
2022/05/23 02:23:19;;;;;;;10.95;4.25;;;;;;;13.73;100.00;164154.28;5073186;28;20028;-63
2022/05/23 02:25:45;;;;;;;6.75;3.55;;;;;;;13.72;100.00;164151.56;5072033;28;20056;-63
2022/05/23 02:28:11;;;;;;;7.00;3.47;;;;;;;13.69;100.00;164143.44;5074253;28;20029;-63
2022/05/23 02:30:36;;;;;;;6.38;4.30;;;;;;;13.66;100.00;164135.34;5071683;28;20385;-63
2022/05/23 02:33:02;;;;;;;10.20;4.35;;;;;;;13.46;100.00;164083.94;5073707;28;20016;-64
2022/05/23 02:35:27;;;;;;;11.10;4.68;;;;;;;13.62;100.00;164127.22;5072100;28;20098;-64
2022/05/23 02:37:52;;;;;;;5.38;3.75;;;;;;;13.60;100.00;164121.78;5073071;28;20383;-64
2022/05/23 02:40:18;;;;;;;8.10;4.47;;;;;;;13.59;100.00;164119.09;5072341;28;20043;-64
2022/05/23 02:42:43;;;;;;;9.23;3.55;;;;;;;13.56;100.00;164109.63;5073238;28;20024;-64
2022/05/23 02:45:09;;;;;;;7.50;4.07;;;;;;;13.54;100.00;164105.56;5071433;28;20376;-62
2022/05/23 02:47:35;;;;;;;6.45;3.47;;;;;;;13.52;100.00;164100.16;5073051;28;20024;-63
2022/05/23 02:50:01;;;;;;;8.95;3.92;;;;;;;13.51;100.00;164097.50;5072905;28;20020;-63
2022/05/23 02:52:26;;;;;;;25.48;5.03;;;;;;;13.49;100.00;164093.41;5071302;28;20043;-63
2022/05/23 02:54:53;;;;;;;5.80;4.70;;;;;;;13.49;100.00;164092.06;5073195;28;20089;-62
2022/05/23 02:57:19;;;;;;;6.13;3.50;;;;;;;13.48;100.00;164089.34;5071454;28;20132;-63
2022/05/23 02:59:44;;;;;;;8.23;5.07;;;;;;;13.42;100.00;164073.13;5072559;28;20025;-63
2022/05/23 03:04:53;;;;;;;9.65;4.38;;;;;;;13.37;100.00;164059.53;5072781;28;20445;-63
2022/05/23 03:07:19;;;;;;;5.75;4.07;;;;;;;13.31;100.00;164046.03;5071091;28;20048;-61
2022/05/23 03:09:44;;;;;;;7.53;4.35;;;;;;;13.27;100.00;164035.22;5071761;28;20028;-61
2022/05/23 03:12:10;;;;;;;10.98;3.72;;;;;;;13.23;100.00;164024.38;5071735;28;20048;-61
2022/05/23 03:14:36;;;;;;;11.63;5.03;;;;;;;13.18;100.00;164010.88;5072509;28;20632;-61
2022/05/23 03:17:03;;;;;;;4.45;3.22;;;;;;;13.15;100.00;164002.75;5071200;28;20047;-61
2022/05/23 03:19:29;;;;;;;7.10;3.93;;;;;;;13.06;100.00;163979.78;5072962;28;20050;-61
2022/05/23 03:27:22;;;;;;;6.30;4.22;;;;;;;13.01;100.00;163966.28;5071028;28;20608;-63
2022/05/23 03:29:47;;;;;;;8.43;4.80;;;;;;;13.03;100.00;163971.66;5071874;28;20040;-63
2022/05/23 03:32:13;;;;;;;6.43;3.88;;;;;;;13.02;100.00;163970.31;5070935;28;20384;-63
2022/05/23 03:34:38;;;;;;;12.45;5.10;;;;;;;13.01;100.00;163967.63;5072339;28;20043;-63
2022/05/23 03:37:05;;;;;;;7.15;4.57;;;;;;;13.04;100.00;163973.03;5070988;28;20041;-63
2022/05/23 03:39:31;;;;;;;12.90;5.60;;;;;;;13.04;100.00;163973.03;5072355;28;20111;-63
2022/05/23 03:41:56;;;;;;;10.25;4.32;;;;;;;13.04;100.00;163973.03;5070518;28;20123;-62
2022/05/23 03:44:21;;;;;;;15.57;5.18;;;;;;;13.06;100.00;163979.78;5071548;28;20479;-63
2022/05/23 03:46:47;;;;;;;7.78;5.13;;;;;;;13.12;100.00;163994.66;5070622;28;20446;-63
2022/05/23 03:49:13;;;;;;;5.47;4.30;;;;;;;13.12;100.00;163996.00;5072314;28;20028;-61
2022/05/23 03:51:39;;;;;;;9.35;5.55;;;;;;;13.16;100.00;164006.84;5070024;28;20174;-62
2022/05/23 03:54:04;;;;;;;12.63;5.45;;;;;;;13.19;100.00;164013.59;5072022;28;20040;-62
2022/05/23 03:56:30;;;;;;;6.03;4.38;;;;;;;13.27;100.00;164035.22;5070825;28;20060;-62
2022/05/23 03:58:55;;;;;;;8.63;6.07;;;;;;;13.29;100.00;164040.59;5071061;28;20028;-61
2022/05/23 04:01:24;;;;;;;12.05;5.78;;;;;;;13.34;100.00;164052.78;5070518;28;20037;-62
2022/05/23 04:03:49;;;;;;;;;;;;;;;13.39;100.00;164065.00;5072663;28;20033;-63
2022/05/23 04:06:14;;;;;;;7.13;5.13;;;;;;;13.40;100.00;164067.72;5070225;28;19916;-63
2022/05/23 04:08:40;;;;;;;12.57;6.60;;;;;;;13.41;100.00;164070.44;5071805;28;20045;-60
2022/05/23 04:11:06;;;;;;;7.72;5.18;;;;;;;13.37;100.00;164060.91;5069097;28;20043;-62
2022/05/23 04:13:32;;;;;;;6.18;4.68;;;;;;;13.38;100.00;164062.25;5070588;28;20032;-62
2022/05/23 04:15:57;;;;;;;8.23;4.93;;;;;;;13.43;100.00;164075.84;5069879;28;20066;-62
2022/05/23 04:18:22;;;;;;;9.40;5.35;;;;;;;13.36;100.00;164056.88;5071155;28;20113;-62
2022/05/23 04:20:48;;;;;;;11.93;5.07;;;;;;;13.44;100.00;164078.56;5068143;28;20044;-62
2022/05/23 04:23:15;;;;;;;6.95;5.68;;;;;;;13.44;100.00;164078.56;5071114;28;20528;-61
2022/05/23 04:25:46;;;;;;;5.85;5.25;;;;;;;13.41;100.00;164070.44;5069432;28;20449;-62
2022/05/23 04:28:13;;;;;;;7.63;5.40;;;;;;;13.45;100.00;164081.22;5071170;28;20025;-62
2022/05/23 04:30:38;;;;;;;8.82;5.18;;;;;;;13.48;100.00;164089.34;5069651;28;20043;-62
2022/05/23 04:35:53;;;;;;;13.60;6.15;;;;;;;13.58;100.00;164116.41;5068441;28;20105;-62
2022/05/23 04:38:18;;;;;;;7.47;4.70;;;;;;;13.61;100.00;164124.50;5070659;28;20052;-62
2022/05/23 04:40:44;;;;;;;9.20;4.70;;;;;;;13.68;100.00;164140.72;5069178;28;20482;-62
2022/05/23 04:43:10;;;;;;;13.88;4.55;;;;;;;13.74;100.00;164156.94;5069688;28;20037;-62
2022/05/23 04:45:35;;;;;;;8.25;4.70;;;;;;;13.76;100.00;164163.75;5068421;28;20044;-63
2022/05/23 04:50:44;;;;;;;10.63;5.25;;;;;;;13.87;100.00;164192.16;5069103;28;20043;-60
2022/05/23 04:53:10;;;;;;;8.65;6.07;;;;;;;13.92;100.00;164205.66;5071152;28;20024;-60
2022/05/23 04:55:37;;;;;;;10.15;5.28;;;;;;;14.00;100.00;164224.59;5069226;28;20036;-60
2022/05/23 04:58:02;;;;;;;9.40;4.88;;;;;;;14.01;100.00;164228.63;5070997;28;20027;-60
2022/05/23 05:00:29;;;;;;;8.38;5.53;;;;;;;14.03;100.00;164232.72;5069224;28;20044;-60
2022/05/23 05:02:59;;;;;;;9.27;5.68;;;;;;;14.11;100.00;164255.72;5059412;28;20037;-60
2022/05/23 05:05:25;;;;;;;8.65;4.97;;;;;;;14.22;100.00;164284.13;5058039;28;20507;-60
2022/05/23 05:07:51;;;;;;;6.13;5.30;;;;;;;14.27;100.00;164297.63;5060937;28;20533;-59
2022/05/23 05:10:16;;;;;;;5.93;5.05;;;;;;;14.34;100.00;164313.84;5058331;28;20044;-60
2022/05/23 05:12:41;;;;;;;8.25;5.35;;;;;;;14.37;100.00;164322.00;5059888;28;20036;-60
2022/05/23 05:15:08;;;;;;;6.28;5.05;;;;;;;14.45;100.00;164343.66;5053614;28;20033;-59
2022/05/23 05:17:33;;;;;;;7.88;5.72;;;;;;;14.50;100.00;164357.16;5066678;28;20487;-59
2022/05/23 05:19:58;;;;;;;10.82;7.20;;;;;;;14.55;100.00;164370.72;5065342;28;20035;-60
2022/05/23 05:22:24;;;;;;;12.85;6.40;;;;;;;14.60;100.00;164384.25;5058990;28;20095;-59
2022/05/23 05:24:49;;;;;;;11.55;7.28;;;;;;;14.66;100.00;164399.19;5058780;28;20060;-60
2022/05/23 05:27:14;;;;;;;9.10;5.43;;;;;;;14.69;100.00;164405.94;5053980;28;20049;-59
2022/05/23 05:29:40;;;;;;;6.22;5.13;;;;;;;14.79;100.00;164432.97;5050620;28;20030;-59
2022/05/23 05:32:12;;;;;;;8.68;5.78;;;;;;;14.86;100.00;164451.91;5048702;28;20041;-59
2022/05/23 05:34:49;;;;;;;7.88;5.82;;;;;;;14.94;100.00;164472.25;5049767;28;20061;-59
2022/05/23 05:37:22;;;;;;;16.55;6.50;;;;;;;14.96;100.00;164476.28;5048791;28;20036;-59
2022/05/23 05:39:50;;;;;;;6.75;6.15;;;;;;;15.08;100.00;164508.75;5049682;28;20033;-59
2022/05/23 05:42:27;;;;;;;8.70;6.73;;;;;;;15.16;100.00;164529.09;5048267;28;20044;-59
2022/05/23 05:44:58;;;;;;;9.70;6.88;;;;;;;15.22;100.00;164546.72;5049555;28;20421;-59
2022/05/23 05:47:24;;;;;;;9.50;6.13;;;;;;;15.22;100.00;164546.72;5048567;28;20190;-58
2022/05/23 05:49:53;;;;;;;9.85;6.15;;;;;;;15.32;100.00;164572.41;5049562;28;20028;-58
2022/05/23 05:52:24;;;;;;;18.27;6.65;;;;;;;15.43;100.00;164600.84;5048561;28;20500;-59
2022/05/23 05:54:51;;;;;;;12.15;6.95;;;;;;;15.50;100.00;164619.78;5050326;28;20029;-59
2022/05/23 05:57:17;;;;;;;7.68;5.40;;;;;;;15.60;100.00;164645.50;5048368;28;20068;-59
2022/05/23 05:59:42;;;;;;;11.18;6.78;;;;;;;15.73;100.00;164679.38;5049779;28;20068;-59
2022/05/23 06:02:08;;;;;;;12.23;6.47;;;;;;;15.89;100.00;164720.03;5048801;28;20459;-59
2022/05/23 06:04:34;;;;;;;7.35;5.78;;;;;;;15.99;100.00;164747.09;5049727;28;20400;-60
2022/05/23 06:12:28;;;;;;;11.82;5.85;;;;;;;16.18;100.00;164798.56;5048374;28;20052;-59
2022/05/23 06:14:53;;;;;;;12.25;7.20;;;;;;;16.28;100.00;164822.91;5050630;28;20028;-58
2022/05/23 06:17:19;;;;;;;10.45;6.00;;;;;;;16.34;100.00;164839.22;5068427;28;20052;-57
2022/05/23 06:19:46;;;;;;;10.63;7.10;;;;;;;16.39;100.00;164852.75;5069501;28;20036;-58
2022/05/23 06:22:14;;;;;;;7.78;5.60;;;;;;;16.54;100.00;164890.66;5059073;28;20048;-57
2022/05/23 06:24:41;;;;;;;11.18;6.75;;;;;;;16.71;100.00;164935.38;5052121;28;20072;-58
2022/05/23 06:27:08;;;;;;;9.45;5.72;;;;;;;16.75;100.00;164947.56;5061658;28;20075;-57
2022/05/23 06:29:34;;;;;;;7.45;6.53;;;;;;;16.85;100.00;164971.97;5070130;28;20055;-58
2022/05/23 06:32:00;;;;;;;7.13;5.47;;;;;;;16.92;100.00;164990.94;5068468;28;20048;-58
2022/05/23 06:34:25;;;;;;;6.85;6.13;;;;;;;17.00;100.00;165012.66;5070002;28;20074;-57
2022/05/23 06:36:50;;;;;;;10.27;6.03;;;;;;;17.02;100.00;165018.03;5068080;28;20441;-58
2022/05/23 06:39:17;;;;;;;13.20;6.93;;;;;;;17.20;100.00;165064.13;5069863;28;20028;-58
2022/05/23 06:41:42;;;;;;;10.88;5.82;;;;;;;17.27;100.00;165083.09;5067822;28;20036;-58
2022/05/23 06:44:08;;;;;;;8.82;5.70;;;;;;;17.25;100.00;165077.66;5070064;28;20020;-57
2022/05/23 06:46:33;;;;;;;6.00;4.78;;;;;;;17.13;100.00;165047.88;5072035;28;20059;-58
2022/05/23 06:48:59;;;;;;;8.52;5.53;;;;;;;17.32;100.00;165096.63;5072796;28;20399;-57
2022/05/23 06:51:24;;;;;;;8.20;5.28;;;;;;;17.37;100.00;165108.84;5071901;28;20044;-57
2022/05/23 06:53:50;;;;;;;11.07;5.00;;;;;;;17.43;100.00;165125.09;5073090;28;20020;-57
2022/05/23 06:56:16;;;;;;;7.50;5.00;;;;;;;17.60;100.00;165169.84;5071408;28;20037;-57
2022/05/23 06:58:41;;;;;;;8.55;5.75;;;;;;;17.73;100.00;165203.72;5073046;28;20021;-58
2022/05/23 07:01:07;;;;;;;10.02;6.00;;;;;;;17.87;100.00;165240.31;5071434;28;20033;-58
2022/05/23 07:03:32;;;;;;;7.85;5.60;;;;;;;17.98;100.00;165270.22;5073093;28;20059;-57
2022/05/23 07:14:09;;;;;;;6.50;5.60;;;;;;;18.56;100.00;165422.06;5066884;28;20041;-57
2022/05/23 07:16:35;;;;;;;11.23;5.35;;;;;;;18.66;100.00;165449.16;5066891;28;20033;-58
2022/05/23 07:19:02;;;;;;;7.20;5.03;;;;;;;18.71;100.00;165462.75;5070699;28;20036;-58
2022/05/23 07:21:28;;;;;;;10.82;5.72;;;;;;;18.67;100.00;165451.88;5070978;28;20040;-58
2022/05/23 07:23:55;;;;;;;7.80;6.07;;;;;;;18.76;100.00;165473.59;5056252;28;20049;-58
2022/05/23 07:26:20;;;;;;;7.53;5.32;;;;;;;18.89;100.00;165508.84;5070480;28;20071;-58
2022/05/23 07:28:47;;;;;;;9.20;5.00;;;;;;;18.82;100.00;165489.84;5072350;28;20028;-57
2022/05/23 07:31:12;;;;;;;12.48;5.25;;;;;;;18.86;100.00;165500.72;5071151;28;20043;-57
2022/05/23 07:33:39;;;;;;;15.18;6.15;;;;;;;19.03;100.00;165545.53;5072029;28;20029;-58
2022/05/23 07:36:07;;;;;;;6.97;4.47;;;;;;;19.14;100.00;165574.03;5052972;28;20067;-57
2022/05/23 07:38:33;;;;;;;7.05;4.57;;;;;;;19.33;100.00;165625.56;5052780;28;20025;-57
2022/05/23 07:40:59;;;;;;;14.63;6.35;;;;;;;19.47;100.00;165660.88;5050373;28;20555;-57
2022/05/23 07:43:25;;;;;;;6.20;5.07;;;;;;;19.66;100.00;165712.41;5052350;28;20028;-58
2022/05/23 07:45:53;;;;;;;10.40;5.05;;;;;;;19.78;100.00;165742.25;5056350;28;20438;-58
2022/05/23 07:48:18;;;;;;;10.23;5.70;;;;;;;19.95;100.00;165787.09;5071963;28;20024;-57
2022/05/23 07:50:45;;;;;;;11.65;5.00;;;;;;;20.15;100.00;165838.66;5070488;28;20036;-58
2022/05/23 08:01:22;;;;;;;10.68;5.25;;;;;;;20.60;100.00;165959.47;5070461;28;20128;-57
2022/05/23 08:03:47;;;;;;;9.25;5.18;;;;;;;20.69;100.00;165982.56;5071382;28;20028;-57
2022/05/23 08:06:13;;;;;;;7.35;4.07;;;;;;;20.86;100.00;166027.41;5070258;28;20045;-57
2022/05/23 08:08:39;;;;;;;7.22;4.70;;;;;;;20.84;100.00;166020.63;5071350;28;20483;-57
2022/05/23 08:11:08;;;;;;;10.20;4.65;;;;;;;20.81;100.00;166013.84;5070104;28;20037;-56
2022/05/23 08:13:34;;;;;;;7.55;4.57;;;;;;;20.76;100.00;166000.25;5072028;28;20027;-57
2022/05/23 08:16:00;;;;;;;8.35;4.30;;;;;;;20.67;100.00;165975.75;5070440;28;20695;-56
2022/05/23 08:18:25;;;;;;;6.97;5.03;;;;;;;20.87;100.00;166028.75;5071202;28;20056;-57
2022/05/23 08:20:51;;;;;;;8.80;4.47;;;;;;;21.03;100.00;166070.88;5069903;28;20507;-57
2022/05/23 08:23:16;;;;;;;6.40;4.63;;;;;;;21.40;100.00;166170.00;5069026;28;20392;-57
2022/05/23 08:25:42;;;;;;;12.23;6.18;;;;;;;21.76;100.00;166263.78;5068717;28;20055;-56
2022/05/23 08:28:07;;;;;;;6.75;4.72;;;;;;;22.13;100.00;166360.19;5063072;28;20043;-56
2022/05/23 08:30:32;;;;;;;6.40;3.92;;;;;;;22.46;100.00;166447.22;5049711;28;20060;-57
2022/05/23 08:32:58;;;;;;;8.32;4.70;;;;;;;22.62;100.00;166489.34;5051039;28;20032;-57
2022/05/23 08:35:24;;;;;;;5.78;3.83;;;;;;;22.92;100.00;166568.16;5050098;28;20024;-56
2022/05/23 08:37:52;;;;;;;9.00;4.63;;;;;;;22.91;100.00;166566.81;5051319;28;20048;-57
2022/05/23 08:40:17;;;;;;;5.93;4.17;;;;;;;22.81;100.00;166541.00;5049652;28;20021;-57
2022/05/23 08:42:55;;;;;;;9.23;5.43;;;;;;;22.84;100.00;166546.41;5061425;28;20476;-56
2022/05/23 08:45:25;;;;;;;8.57;4.43;;;;;;;22.92;100.00;166568.16;5068395;28;20032;-56
2022/05/23 08:48:05;;;;;;;6.85;3.55;;;;;;;23.12;100.00;166622.53;5067373;28;20056;-57
2022/05/23 08:50:49;;;;;;;10.57;5.10;;;;;;;22.92;100.00;166568.16;5069667;28;20127;-57
2022/05/23 08:53:24;;;;;;;6.63;3.72;;;;;;;22.97;100.00;166583.13;5070937;28;20024;-57
2022/05/23 08:55:58;;;;;;;6.78;4.13;;;;;;;23.06;100.00;166606.22;5065835;28;20033;-57
2022/05/23 08:58:30;;;;;;;8.30;3.30;;;;;;;23.22;100.00;166647.06;5070979;28;20497;-57
2022/05/23 09:01:05;;;;;;;11.82;5.63;;;;;;;23.57;100.00;166740.88;5067670;28;20498;-57
2022/05/23 09:03:36;;;;;;;7.78;4.68;;;;;;;23.77;100.00;166792.53;5050726;28;20044;-57
2022/05/23 09:06:11;;;;;;;13.10;4.90;;;;;;;24.11;100.00;166880.97;5049451;28;20400;-57
2022/05/23 09:08:51;;;;;;;10.07;4.38;;;;;;;24.31;100.00;166935.34;5049956;28;20464;-57
2022/05/23 09:11:37;;;;;;;5.20;3.95;;;;;;;24.24;100.00;166916.31;5049142;28;20040;-57
2022/05/23 09:14:04;;;;;;;13.65;4.80;;;;;;;24.65;100.00;167025.16;5050864;28;20013;-57
2022/05/23 09:16:40;;;;;;;9.13;5.35;;;;;;;24.85;100.00;167076.88;5049155;28;20037;-57
2022/05/23 09:19:28;;;;;;;8.75;4.28;;;;;;;24.99;100.00;167113.63;5051032;28;20021;-57
2022/05/23 09:22:13;;;;;;;7.30;4.78;;;;;;;24.89;100.00;167087.78;5048966;28;20572;-57
2022/05/23 09:24:51;;;;;;;7.63;3.58;;;;;;;-146.58;100.00;69501.63;5050032;28;20116;-58
2022/05/23 09:27:19;;;;;;;;;;;;;;;-146.58;100.00;69501.63;5049536;28;20082;-58
2022/05/23 09:29:52;;;;;;;9.48;4.38;;;;;;;25.10;100.00;167143.53;5049839;28;19921;-58
2022/05/23 09:32:23;;;;;;;8.00;4.32;;;;;;;25.09;100.00;167139.47;5064707;28;20044;-58
2022/05/23 09:34:55;;;;;;;5.05;3.10;;;;;;;25.15;100.00;167155.78;5070306;28;20024;-58
2022/05/23 09:37:24;;;;;;;7.95;3.10;;;;;;;24.94;100.00;167101.38;5068670;28;20032;-58
2022/05/23 09:39:52;;;;;;;5.65;3.17;;;;;;;25.13;100.00;167150.38;5069742;28;20024;-58
2022/05/23 09:48:07;;;;;;;5.28;3.35;;;;;;;24.83;100.00;167071.47;5066844;28;20098;-58
2022/05/23 09:50:37;;;;;;;10.00;3.20;;;;;;;24.86;100.00;167079.59;5061835;28;20040;-58
2022/05/23 09:53:03;;;;;;;9.63;3.13;;;;;;;24.89;100.00;167087.78;5070107;28;20032;-58
2022/05/23 09:55:33;;;;;;;4.65;2.97;;;;;;;24.80;100.00;167063.28;5068500;28;20047;-58
2022/05/23 09:58:02;;;;;;;15.02;4.32;;;;;;;24.89;100.00;167087.78;5069416;28;20464;-58
2022/05/23 10:00:35;;;;;;;5.57;2.35;;;;;;;24.80;100.00;167063.28;5068473;28;20028;-58
2022/05/23 10:03:17;;;;;;;8.98;2.75;;;;;;;24.42;100.00;166962.56;5069962;28;20111;-58
2022/05/23 10:05:46;;;;;;;3.00;2.70;;;;;;;24.16;100.00;166894.59;5068551;28;20041;-58
2022/05/23 10:08:33;;;;;;;5.43;3.22;;;;;;;24.08;100.00;166875.56;5070343;28;20021;-58
2022/05/23 10:11:01;;;;;;;4.88;3.05;;;;;;;24.19;100.00;166902.72;5067206;28;20045;-58
2022/05/23 10:13:29;;;;;;;9.30;4.20;;;;;;;24.28;100.00;166927.22;5070187;28;20032;-58
2022/05/23 10:16:00;;;;;;;4.47;3.10;;;;;;;24.49;100.00;166981.59;5063955;28;20041;-58
2022/05/23 10:18:29;;;;;;;8.05;3.80;;;;;;;24.63;100.00;167019.69;5070807;28;20031;-58
2022/05/23 10:20:56;;;;;;;6.97;3.55;;;;;;;24.85;100.00;167076.88;5071841;28;20051;-58
2022/05/23 10:23:33;;;;;;;10.38;3.72;;;;;;;25.11;100.00;167144.94;5072177;28;20036;-58
2022/05/23 10:26:23;;;;;;;8.27;3.33;;;;;;;25.53;100.00;167256.53;5051162;28;20044;-58
2022/05/23 10:29:07;;;;;;;7.55;3.90;;;;;;;26.16;100.00;167422.66;5053773;28;20025;-58
2022/05/23 10:31:47;;;;;;;5.40;3.97;;;;;;;26.29;100.00;167456.66;5050666;28;20041;-58
2022/05/23 10:34:37;;;;;;;10.52;4.47;;;;;;;26.73;100.00;167572.41;5053815;28;20025;-58
2022/05/23 10:37:06;;;;;;;7.57;4.72;;;;;;;26.55;100.00;167526.09;5052224;28;20120;-58
2022/05/23 10:42:34;;;;;;;6.78;4.05;;;;;;;25.94;100.00;167365.44;5052300;28;20128;-58
2022/05/23 10:45:30;;;;;;;6.78;3.97;;;;;;;26.06;100.00;167396.72;5053396;28;20037;-58
2022/05/23 10:48:24;;;;;;;10.52;3.83;;;;;;;26.43;100.00;167493.44;5071298;28;20037;-58
2022/05/23 10:51:23;;;;;;;4.68;4.20;;;;;;;26.42;100.00;167490.69;5073140;28;20039;-58
2022/05/23 10:54:27;;;;;;;9.05;4.18;;;;;;;26.53;100.00;167520.69;5071299;28;20045;-58
2022/05/23 10:57:02;;;;;;;8.93;4.35;;;;;;;26.37;100.00;167477.09;5071655;28;20040;-58
2022/05/23 11:00:02;;;;;;;10.23;3.97;;;;;;;26.39;100.00;167482.56;5073374;28;20024;-58
2022/05/23 11:02:33;;;;;;;7.28;4.65;;;;;;;26.28;100.00;167455.31;5071533;28;20055;-58
2022/05/23 11:05:13;;;;;;;12.25;4.82;;;;;;;26.04;100.00;167389.91;5072939;28;20024;-58
2022/05/23 11:07:50;;;;;;;6.70;4.35;;;;;;;25.91;100.00;167357.25;5071000;28;20127;-59
2022/05/23 11:10:38;;;;;;;6.07;3.80;;;;;;;25.70;100.00;167300.09;5073176;28;20036;-58
2022/05/23 11:13:25;;;;;;;7.40;3.17;;;;;;;25.44;100.00;167233.41;5071646;28;20060;-58
2022/05/23 11:16:14;;;;;;;6.38;3.30;;;;;;;25.25;100.00;167183.03;5072597;28;20494;-58
2022/05/23 11:19:04;;;;;;;6.15;4.20;;;;;;;25.06;100.00;167131.34;5071383;28;20036;-58
2022/05/23 11:21:58;;;;;;;8.43;4.03;;;;;;;24.92;100.00;167095.91;5071487;28;20043;-58
2022/05/23 11:24:31;;;;;;;10.68;3.97;;;;;;;24.65;100.00;167025.16;5072526;28;20384;-58
2022/05/23 11:35:30;;;;;;;7.97;4.00;;;;;;;24.71;100.00;167041.50;5071536;28;20051;-58
2022/05/23 11:37:57;;;;;;;10.85;4.85;;;;;;;24.78;100.00;167059.22;5072271;28;20029;-58
2022/05/23 11:40:25;;;;;;;5.88;3.58;;;;;;;24.79;100.00;167060.56;5070811;28;20505;-58
2022/05/23 11:43:01;;;;;;;7.65;3.40;;;;;;;24.85;100.00;167078.28;5072341;28;20561;-58
2022/05/23 11:48:36;;;;;;;5.53;3.40;;;;;;;24.81;100.00;167066.00;5052081;28;20071;-58
2022/05/23 11:51:24;;;;;;;15.10;4.85;;;;;;;24.79;100.00;167060.56;5064813;28;20044;-58
2022/05/23 11:53:55;;;;;;;5.78;4.57;;;;;;;24.80;100.00;167063.28;5071494;28;20115;-59
2022/05/23 11:56:38;;;;;;;10.52;4.72;;;;;;;25.06;100.00;167132.69;5070523;28;20071;-58
2022/05/23 11:59:07;;;;;;;8.70;2.85;;;;;;;25.08;100.00;167136.75;5071690;28;20369;-58
2022/05/23 12:01:34;;;;;;;7.88;4.47;;;;;;;25.02;100.00;167121.75;5069800;28;20044;-58
2022/05/23 12:03:59;;;;;;;5.20;3.25;;;;;;;24.81;100.00;167066.00;5071848;28;20051;-58
2022/05/23 12:06:24;;;;;;;5.57;3.65;;;;;;;24.77;100.00;167055.09;5063322;28;20127;-59
2022/05/23 12:09:02;;;;;;;5.32;3.55;;;;;;;24.76;100.00;167052.44;5071381;28;20112;-58
2022/05/23 12:11:33;;;;;;;12.00;4.03;;;;;;;24.88;100.00;167085.06;5048118;28;20714;-58
2022/05/23 12:14:19;;;;;;;6.68;2.92;;;;;;;24.97;100.00;167108.16;5051251;28;20029;-58
2022/05/23 12:17:06;;;;;;;8.40;3.28;;;;;;;25.31;100.00;167199.34;5050273;28;20037;-58
2022/05/23 12:19:39;;;;;;;8.18;3.22;;;;;;;25.47;100.00;167240.22;5051547;28;20036;-58
2022/05/23 12:22:32;;;;;;;6.28;3.28;;;;;;;25.68;100.00;167294.66;5049879;28;20471;-58
2022/05/23 12:25:09;;;;;;;8.90;3.50;;;;;;;25.83;100.00;167335.47;5051252;28;20041;-58
2022/05/23 12:27:37;;;;;;;10.30;2.50;;;;;;;25.98;100.00;167374.97;5050277;28;20124;-58
2022/05/23 12:30:17;;;;;;;4.03;3.25;;;;;;;25.94;100.00;167365.44;5051112;28;20020;-58